Time;durP1;ratioP1;P1;durP2;ratioP2;P2;SDS_P1;SDS_P2;PMS_P1;PMS_P2;Temp;Humidity;BMP_temperature;BMP_pressure;BME280_temperature;BME280_humidity;BME280_pressure;Samples;Min_cycle;Max_cycle;Signal;HPM_P1;HPM_P2
2023/05/19 00:00:18;;;;;;;4.05;3.80;;;;;;;;;;5076254;28;20032;-68
2023/05/19 00:02:44;;;;;;;4.40;4.00;;;;;;;;;;5076309;28;20017;-67
2023/05/19 00:05:10;;;;;;;3.85;3.38;;;;;;;;;;5075936;28;20033;-68
2023/05/19 00:07:36;;;;;;;3.33;3.13;;;;;;;;;;5058259;28;20031;-67
2023/05/19 00:10:02;;;;;;;3.58;3.28;;;;;;;;;;5076006;28;20068;-67
2023/05/19 00:12:28;;;;;;;5.38;3.50;;;;;;;;;;5076158;28;20060;-67
2023/05/19 00:14:53;;;;;;;3.53;3.22;;;;;;;;;;5076057;28;20033;-68
2023/05/19 00:17:19;;;;;;;31.67;16.80;;;;;;;;;;5075745;28;20102;-67
2023/05/19 00:19:44;;;;;;;63.58;30.85;;;;;;;;;;5058029;28;20039;-67
2023/05/19 00:22:10;;;;;;;74.38;36.70;;;;;;;;;;5075953;28;20024;-67
2023/05/19 00:24:35;;;;;;;11.07;6.80;;;;;;;;;;5076185;28;20482;-67
2023/05/19 00:27:00;;;;;;;73.18;39.97;;;;;;;;;;5076195;28;20024;-66
2023/05/19 00:29:26;;;;;;;22.20;12.65;;;;;;;;;;5075882;28;20035;-66
2023/05/19 00:31:51;;;;;;;22.58;15.63;;;;;;;;;;5057882;28;20032;-67
2023/05/19 00:34:17;;;;;;;15.65;11.20;;;;;;;;;;5075944;28;20058;-67
2023/05/19 00:36:42;;;;;;;13.05;10.32;;;;;;;;;;5057852;28;20066;-67
2023/05/19 00:39:07;;;;;;;6.53;5.75;;;;;;;;;;5075850;28;20033;-68
2023/05/19 00:41:33;;;;;;;5.82;4.00;;;;;;;;;;5057901;28;20020;-68
2023/05/19 00:43:59;;;;;;;5.93;5.32;;;;;;;;;;5057633;28;20019;-68
2023/05/19 00:46:24;;;;;;;6.03;5.43;;;;;;;;;;5057998;28;20020;-68
2023/05/19 00:48:51;;;;;;;6.75;6.03;;;;;;;;;;5057917;28;20100;-69
2023/05/19 00:51:16;;;;;;;6.70;5.82;;;;;;;;;;5075930;28;20044;-69
2023/05/19 00:53:47;;;;;;;4.47;3.85;;;;;;;;;;5075437;28;20125;-68
2023/05/19 00:56:12;;;;;;;3.55;3.30;;;;;;;;;;5057188;28;20045;-68
2023/05/19 00:58:38;;;;;;;5.03;3.63;;;;;;;;;;5093979;28;20524;-67
2023/05/19 01:01:06;;;;;;;3.50;3.30;;;;;;;;;;5073923;28;20033;-66
2023/05/19 01:03:34;;;;;;;4.15;3.75;;;;;;;;;;5075644;28;20033;-66
2023/05/19 01:06:05;;;;;;;2.80;2.50;;;;;;;;;;5075629;28;20471;-66
2023/05/19 01:08:35;;;;;;;2.90;2.70;;;;;;;;;;5075154;28;20107;-66
2023/05/19 01:11:01;;;;;;;2.00;1.90;;;;;;;;;;5056318;28;20044;-66
2023/05/19 01:13:27;;;;;;;2.67;2.47;;;;;;;;;;5057402;28;20052;-67
2023/05/19 01:15:55;;;;;;;2.95;2.42;;;;;;;;;;5075379;28;20035;-67
2023/05/19 01:18:24;;;;;;;2.40;2.20;;;;;;;;;;5057306;28;20036;-62
2023/05/19 01:20:52;;;;;;;2.80;2.08;;;;;;;;;;5057112;28;20029;-63
2023/05/19 01:23:35;;;;;;;2.72;2.40;;;;;;;;;;5075078;28;20113;-62
2023/05/19 01:26:19;;;;;;;2.63;2.20;;;;;;;;;;5075130;28;20116;-63
2023/05/19 01:29:03;;;;;;;2.60;2.40;;;;;;;;;;5074456;28;20032;-63
2023/05/19 01:31:29;;;;;;;2.95;2.33;;;;;;;;;;5040455;28;20059;-63
2023/05/19 01:33:55;;;;;;;3.70;2.35;;;;;;;;;;5056916;28;20071;-63
2023/05/19 01:36:21;;;;;;;2.92;2.38;;;;;;;;;;5056704;28;20079;-63
2023/05/19 01:38:49;;;;;;;3.72;2.22;;;;;;;;;;5088728;28;20379;-63
2023/05/19 01:41:15;;;;;;;4.30;2.30;;;;;;;;;;5076768;28;20032;-63
2023/05/19 01:43:41;;;;;;;2.33;2.13;;;;;;;;;;5094920;28;20111;-63
2023/05/19 01:46:06;;;;;;;2.85;2.28;;;;;;;;;;5089776;28;20081;-63
2023/05/19 01:48:32;;;;;;;3.88;2.13;;;;;;;;;;5058711;28;20028;-63
2023/05/19 01:50:58;;;;;;;3.67;2.60;;;;;;;;;;5075076;28;20071;-63
2023/05/19 01:53:23;;;;;;;3.33;2.53;;;;;;;;;;5074485;28;20028;-63
2023/05/19 01:55:50;;;;;;;2.50;2.30;;;;;;;;;;5074595;28;20135;-62
2023/05/19 01:58:36;;;;;;;2.45;2.15;;;;;;;;;;5040301;28;20035;-61
2023/05/19 02:01:10;;;;;;;26.27;12.65;;;;;;;;;;5074095;28;20051;-62
2023/05/19 02:03:55;;;;;;;3.42;2.53;;;;;;;;;;5051838;28;20025;-63
2023/05/19 02:06:32;;;;;;;5.80;4.32;;;;;;;;;;5074333;28;20464;-62
2023/05/19 02:09:10;;;;;;;3.50;3.15;;;;;;;;;;5056103;28;20479;-63
2023/05/19 02:11:37;;;;;;;2.97;2.38;;;;;;;;;;5073781;28;20024;-63
2023/05/19 02:14:08;;;;;;;2.58;2.38;;;;;;;;;;5056195;28;20082;-63
2023/05/19 02:16:35;;;;;;;2.50;2.30;;;;;;;;;;5056014;28;20032;-63
2023/05/19 02:19:00;;;;;;;2.42;2.20;;;;;;;;;;5057181;28;20380;-63
2023/05/19 02:21:25;;;;;;;2.38;2.17;;;;;;;;;;5094011;28;20043;-63
2023/05/19 02:23:51;;;;;;;2.70;2.33;;;;;;;;;;5076090;28;20035;-62
2023/05/19 02:26:18;;;;;;;4.20;2.50;;;;;;;;;;5076095;28;20020;-63
2023/05/19 02:28:43;;;;;;;2.58;2.38;;;;;;;;;;5093888;28;20051;-62
2023/05/19 02:31:09;;;;;;;2.40;2.20;;;;;;;;;;5093988;28;20103;-63
2023/05/19 02:33:35;;;;;;;3.08;2.38;;;;;;;;;;5075985;28;20036;-62
2023/05/19 02:36:01;;;;;;;2.70;2.50;;;;;;;;;;5093938;28;20024;-63
2023/05/19 02:38:27;;;;;;;4.22;2.22;;;;;;;;;;5075912;28;20032;-63
2023/05/19 02:40:52;;;;;;;3.33;3.03;;;;;;;;;;5075928;28;20073;-63
2023/05/19 02:43:18;;;;;;;2.58;2.38;;;;;;;;;;5075867;28;20021;-62
2023/05/19 02:45:43;;;;;;;2.63;2.10;;;;;;;;;;5094139;28;20051;-63
2023/05/19 02:48:08;;;;;;;2.63;2.40;;;;;;;;;;5094007;28;20024;-63
2023/05/19 02:50:34;;;;;;;2.65;2.17;;;;;;;;;;5075244;28;20032;-63
2023/05/19 02:53:00;;;;;;;4.43;2.53;;;;;;;;;;5075763;28;20119;-66
2023/05/19 02:55:25;;;;;;;2.75;2.22;;;;;;;;;;5046509;28;20373;-66
2023/05/19 02:57:51;;;;;;;2.78;2.10;;;;;;;;;;5034282;28;20396;-66
2023/05/19 03:00:16;;;;;;;2.90;2.45;;;;;;;;;;5030960;28;20037;-67
2023/05/19 03:02:54;;;;;;;2.55;2.35;;;;;;;;;;5051941;28;20073;-69
2023/05/19 03:05:19;;;;;;;2.03;1.92;;;;;;;;;;5053493;28;20033;-68
2023/05/19 03:07:45;;;;;;;4.25;2.80;;;;;;;;;;5035547;28;20033;-64
2023/05/19 03:10:10;;;;;;;2.60;2.40;;;;;;;;;;5053365;28;20460;-66
2023/05/19 03:12:36;;;;;;;6.40;2.72;;;;;;;;;;5035638;28;20021;-67
2023/05/19 03:15:02;;;;;;;4.03;2.40;;;;;;;;;;5053492;28;20151;-67
2023/05/19 03:17:32;;;;;;;2.92;2.40;;;;;;;;;;5035517;28;20468;-67
2023/05/19 03:19:57;;;;;;;3.13;2.25;;;;;;;;;;5035429;28;20037;-67
2023/05/19 03:22:24;;;;;;;3.42;2.50;;;;;;;;;;5053342;28;20028;-67
2023/05/19 03:24:50;;;;;;;2.95;2.55;;;;;;;;;;5035357;28;20420;-67
2023/05/19 03:27:17;;;;;;;2.67;2.47;;;;;;;;;;5035469;28;20032;-67
2023/05/19 03:29:42;;;;;;;2.92;2.55;;;;;;;;;;5035362;28;20472;-67
2023/05/19 03:32:09;;;;;;;2.95;2.65;;;;;;;;;;5052216;28;20029;-68
2023/05/19 03:34:35;;;;;;;3.72;2.78;;;;;;;;;;5038820;28;20052;-68
2023/05/19 03:37:00;;;;;;;3.88;3.10;;;;;;;;;;5039133;28;20025;-67
2023/05/19 03:39:25;;;;;;;9.55;5.45;;;;;;;;;;5039429;28;20025;-67
2023/05/19 03:41:51;;;;;;;3.50;2.83;;;;;;;;;;5057240;28;20041;-67
2023/05/19 03:44:16;;;;;;;3.63;2.80;;;;;;;;;;5039088;28;20025;-67
2023/05/19 03:46:43;;;;;;;3.78;2.50;;;;;;;;;;5039154;28;20450;-66
2023/05/19 03:49:27;;;;;;;3.03;2.30;;;;;;;;;;5055708;28;20021;-66
2023/05/19 03:52:08;;;;;;;2.72;2.17;;;;;;;;;;5057242;28;20037;-67
2023/05/19 03:54:50;;;;;;;2.60;2.40;;;;;;;;;;5074123;22;20535;-66
2023/05/19 03:57:17;;;;;;;3.25;2.75;;;;;;;;;;5070271;28;20052;-65
2023/05/19 03:59:43;;;;;;;3.58;2.50;;;;;;;;;;5075972;28;20515;-63
2023/05/19 04:02:08;;;;;;;3.45;2.78;;;;;;;;;;5075449;28;20372;-62
2023/05/19 04:04:46;;;;;;;2.65;2.45;;;;;;;;;;5076646;28;20078;-62
2023/05/19 04:07:11;;;;;;;2.13;2.00;;;;;;;;;;5078004;28;20491;-63
2023/05/19 04:09:37;;;;;;;3.88;2.30;;;;;;;;;;5075151;28;20024;-63
2023/05/19 04:12:02;;;;;;;2.50;2.30;;;;;;;;;;5078613;28;20052;-62
2023/05/19 04:14:27;;;;;;;3.42;2.42;;;;;;;;;;5093687;28;20032;-64
2023/05/19 04:16:53;;;;;;;3.75;2.80;;;;;;;;;;5076126;28;20138;-68
2023/05/19 04:19:18;;;;;;;3.88;3.33;;;;;;;;;;5075334;28;20021;-66
2023/05/19 04:21:44;;;;;;;6.65;3.33;;;;;;;;;;5087636;28;20426;-73
2023/05/19 04:24:09;;;;;;;3.65;3.28;;;;;;;;;;5088658;28;20022;-63
2023/05/19 04:26:36;;;;;;;3.97;3.00;;;;;;;;;;5098614;28;20389;-63
2023/05/19 04:29:03;;;;;;;2.80;2.47;;;;;;;;;;5087004;28;20493;-64
2023/05/19 04:31:28;;;;;;;3.13;2.88;;;;;;;;;;5096202;28;20103;-63
2023/05/19 04:33:54;;;;;;;3.17;2.88;;;;;;;;;;5078972;28;20062;-65
2023/05/19 04:36:21;;;;;;;3.88;2.83;;;;;;;;;;5078103;28;20058;-64
2023/05/19 04:38:47;;;;;;;4.43;2.70;;;;;;;;;;5078576;28;20035;-71
2023/05/19 04:41:15;;;;;;;3.65;3.20;;;;;;;;;;5072669;28;20035;-70
2023/05/19 04:43:43;;;;;;;5.10;2.97;;;;;;;;;;5097959;28;20061;-65
2023/05/19 04:46:10;;;;;;;5.75;4.63;;;;;;;;;;5098090;28;20054;-64
2023/05/19 04:48:36;;;;;;;5.55;4.20;;;;;;;;;;5098145;28;20047;-62
2023/05/19 04:51:01;;;;;;;4.55;4.05;;;;;;;;;;5099127;28;20023;-62
2023/05/19 04:53:28;;;;;;;7.95;5.85;;;;;;;;;;5099032;28;20028;-62
2023/05/19 04:55:54;;;;;;;6.68;6.18;;;;;;;;;;5080944;28;20051;-62
2023/05/19 04:58:19;;;;;;;5.95;5.35;;;;;;;;;;5097788;28;20390;-63
2023/05/19 05:00:45;;;;;;;6.97;6.22;;;;;;;;;;5098329;28;20068;-64
2023/05/19 05:03:13;;;;;;;4.50;3.53;;;;;;;;;;5097585;28;20019;-63
2023/05/19 05:05:38;;;;;;;4.82;3.70;;;;;;;;;;5097625;28;20095;-63
2023/05/19 05:08:04;;;;;;;3.58;3.05;;;;;;;;;;5097428;28;20239;-63
2023/05/19 05:10:34;;;;;;;3.88;3.45;;;;;;;;;;5094754;28;20032;-65
2023/05/19 05:13:00;;;;;;;3.38;2.28;;;;;;;;;;5086610;28;20024;-65
2023/05/19 05:15:27;;;;;;;2.85;2.22;;;;;;;;;;5111270;28;20024;-65
2023/05/19 05:17:53;;;;;;;4.28;2.80;;;;;;;;;;5097095;28;20034;-65
2023/05/19 05:20:20;;;;;;;2.83;2.40;;;;;;;;;;5096547;28;20110;-65
2023/05/19 05:22:45;;;;;;;5.57;3.22;;;;;;;;;;5080171;28;20134;-65
2023/05/19 05:25:12;;;;;;;3.03;2.35;;;;;;;;;;5097383;28;20430;-65
2023/05/19 05:27:40;;;;;;;4.38;3.55;;;;;;;;;;5093833;28;20051;-64
2023/05/19 05:30:07;;;;;;;3.30;3.00;;;;;;;;;;5076856;28;20031;-65
2023/05/19 05:32:33;;;;;;;4.38;3.10;;;;;;;;;;5094884;28;20020;-69
2023/05/19 05:35:00;;;;;;;3.60;3.30;;;;;;;;;;5076037;28;20103;-64
2023/05/19 05:37:25;;;;;;;4.53;3.30;;;;;;;;;;5075686;28;20122;-64
2023/05/19 05:39:51;;;;;;;8.25;5.88;;;;;;;;;;5075578;28;20024;-63
2023/05/19 05:42:17;;;;;;;3.88;3.13;;;;;;;;;;5094178;28;20019;-63
2023/05/19 05:44:42;;;;;;;7.35;4.65;;;;;;;;;;5059386;28;20475;-63
2023/05/19 05:47:10;;;;;;;8.57;5.28;;;;;;;;;;5058364;28;20233;-63
2023/05/19 05:49:36;;;;;;;4.85;4.13;;;;;;;;;;5074698;28;20320;-63
2023/05/19 05:52:03;;;;;;;6.30;4.50;;;;;;;;;;5074760;28;20035;-63
2023/05/19 05:54:30;;;;;;;4.65;3.45;;;;;;;;;;5074508;28;20402;-63
2023/05/19 05:56:56;;;;;;;3.47;2.95;;;;;;;;;;5073828;28;20170;-63
2023/05/19 05:59:21;;;;;;;10.73;5.50;;;;;;;;;;5074447;28;20024;-63
2023/05/19 06:01:46;;;;;;;8.23;4.93;;;;;;;;;;5075150;28;20039;-63
2023/05/19 06:04:14;;;;;;;11.45;9.10;;;;;;;;;;5075283;28;20486;-63
2023/05/19 06:06:41;;;;;;;8.00;7.15;;;;;;;;;;5075633;28;20112;-63
2023/05/19 06:09:07;;;;;;;6.53;4.90;;;;;;;;;;5059120;28;20040;-63
2023/05/19 06:11:32;;;;;;;9.30;7.10;;;;;;;;;;5076120;28;20105;-63
2023/05/19 06:13:58;;;;;;;6.85;4.60;;;;;;;;;;5076078;28;20074;-63
2023/05/19 06:16:46;;;;;;;4.65;3.80;;;;;;;;;;5076023;28;20035;-64
2023/05/19 06:19:13;;;;;;;4.43;3.45;;;;;;;;;;5075995;28;20040;-64
2023/05/19 06:21:41;;;;;;;6.22;3.80;;;;;;;;;;5075854;28;20024;-65
2023/05/19 06:24:07;;;;;;;4.13;3.72;;;;;;;;;;5076748;28;20046;-65
2023/05/19 06:26:32;;;;;;;6.47;3.88;;;;;;;;;;5075867;28;20016;-64
2023/05/19 06:28:58;;;;;;;6.25;3.83;;;;;;;;;;5075775;28;20024;-64
2023/05/19 06:31:25;;;;;;;5.72;3.80;;;;;;;;;;5075823;28;20081;-65
2023/05/19 06:33:53;;;;;;;6.63;3.72;;;;;;;;;;5075768;28;20383;-64
2023/05/19 06:36:19;;;;;;;5.45;3.53;;;;;;;;;;5076083;28;20028;-64
2023/05/19 06:38:45;;;;;;;3.88;3.58;;;;;;;;;;5075760;28;20027;-64
2023/05/19 06:41:11;;;;;;;5.07;3.70;;;;;;;;;;5075594;28;20084;-63
2023/05/19 06:43:37;;;;;;;4.57;4.03;;;;;;;;;;5075633;28;20024;-63
2023/05/19 06:46:03;;;;;;;4.57;3.78;;;;;;;;;;5075635;28;20109;-63
2023/05/19 06:48:30;;;;;;;5.32;3.90;;;;;;;;;;5075894;28;20483;-63
2023/05/19 06:50:57;;;;;;;5.70;4.00;;;;;;;;;;5075601;28;20038;-63
2023/05/19 06:53:23;;;;;;;6.88;5.07;;;;;;;;;;5075828;28;20038;-63
2023/05/19 06:55:49;;;;;;;5.90;4.45;;;;;;;;;;5093552;28;20040;-63
2023/05/19 06:58:17;;;;;;;7.68;4.85;;;;;;;;;;5075780;28;20024;-63
2023/05/19 07:00:43;;;;;;;6.10;4.80;;;;;;;;;;5075500;28;20415;-63
2023/05/19 07:03:11;;;;;;;8.13;4.60;;;;;;;;;;5075551;28;20395;-63
2023/05/19 07:05:36;;;;;;;15.85;9.77;;;;;;;;;;5075474;28;20111;-63
2023/05/19 07:08:02;;;;;;;7.45;4.32;;;;;;;;;;5076529;28;20122;-63
2023/05/19 07:10:28;;;;;;;7.38;4.75;;;;;;;;;;5079599;28;20028;-68
2023/05/19 07:12:54;;;;;;;6.10;5.00;;;;;;;;;;5062943;28;20475;-68
2023/05/19 07:15:22;;;;;;;6.25;5.65;;;;;;;;;;5079463;28;20035;-68
2023/05/19 07:17:48;;;;;;;6.70;5.90;;;;;;;;;;5079464;28;20391;-68
2023/05/19 07:20:13;;;;;;;6.00;4.85;;;;;;;;;;5079881;28;20058;-68
2023/05/19 07:22:39;;;;;;;4.72;3.97;;;;;;;;;;5062680;28;20021;-68
2023/05/19 07:25:08;;;;;;;4.15;3.75;;;;;;;;;;5079260;28;20043;-68
2023/05/19 07:27:33;;;;;;;5.85;4.78;;;;;;;;;;5079251;28;20484;-68
2023/05/19 07:29:59;;;;;;;7.85;5.35;;;;;;;;;;5079282;28;20035;-68
2023/05/19 07:32:24;;;;;;;5.82;5.13;;;;;;;;;;5079229;28;20020;-68
2023/05/19 07:34:49;;;;;;;5.30;4.50;;;;;;;;;;5097825;28;20020;-68
2023/05/19 07:37:15;;;;;;;5.45;4.60;;;;;;;;;;5097515;28;20024;-68
2023/05/19 07:39:40;;;;;;;4.00;3.70;;;;;;;;;;5097190;28;20514;-68
2023/05/19 07:42:06;;;;;;;6.18;4.18;;;;;;;;;;5078565;28;20036;-69
2023/05/19 07:44:31;;;;;;;4.03;3.40;;;;;;;;;;5097163;28;20559;-69
2023/05/19 07:46:56;;;;;;;6.43;4.78;;;;;;;;;;5078853;28;20024;-69
2023/05/19 07:49:22;;;;;;;5.18;3.70;;;;;;;;;;5096972;28;20111;-68
2023/05/19 07:51:48;;;;;;;3.50;3.10;;;;;;;;;;5078829;28;20031;-68
2023/05/19 07:54:17;;;;;;;3.65;3.30;;;;;;;;;;5078543;28;20036;-68
2023/05/19 07:56:42;;;;;;;6.90;4.20;;;;;;;;;;5097173;28;20051;-68
2023/05/19 07:59:07;;;;;;;5.50;3.97;;;;;;;;;;5078570;28;20028;-68
2023/05/19 08:01:34;;;;;;;3.50;3.20;;;;;;;;;;5096750;28;20107;-68
2023/05/19 08:03:59;;;;;;;3.72;3.30;;;;;;;;;;5078883;28;20526;-68
2023/05/19 08:06:25;;;;;;;3.80;3.40;;;;;;;;;;5078527;28;20113;-68
2023/05/19 08:08:53;;;;;;;4.97;3.85;;;;;;;;;;5096558;28;20398;-68
2023/05/19 08:11:18;;;;;;;3.88;3.58;;;;;;;;;;5096541;28;20032;-68
2023/05/19 08:13:47;;;;;;;4.43;4.03;;;;;;;;;;5096556;28;20475;-68
2023/05/19 08:16:13;;;;;;;5.18;4.10;;;;;;;;;;5096474;28;20032;-68
2023/05/19 08:18:38;;;;;;;3.92;3.60;;;;;;;;;;5096399;28;20031;-68
2023/05/19 08:21:05;;;;;;;6.07;4.30;;;;;;;;;;5096605;28;20032;-68
2023/05/19 08:23:30;;;;;;;6.43;5.05;;;;;;;;;;5078213;28;20012;-68
2023/05/19 08:29:03;;;;;;;4.95;3.80;;;;;;;;;;5081746;22;20139;-68
2023/05/19 08:31:28;;;;;;;4.82;3.63;;;;;;;;;;5064253;22;20453;-63
2023/05/19 08:33:54;;;;;;;5.63;4.47;;;;;;;;;;5116816;28;20069;-63
2023/05/19 08:36:21;;;;;;;4.07;3.67;;;;;;;;;;5116780;28;20026;-63
2023/05/19 08:38:47;;;;;;;5.43;3.55;;;;;;;;;;5116412;28;20038;-63
2023/05/19 08:41:12;;;;;;;11.60;6.32;;;;;;;;;;5098859;28;20122;-63
2023/05/19 08:43:38;;;;;;;6.18;4.65;;;;;;;;;;5098160;28;20528;-63
2023/05/19 08:46:05;;;;;;;5.80;4.72;;;;;;;;;;5116532;28;20459;-63
2023/05/19 08:48:32;;;;;;;4.82;3.50;;;;;;;;;;5116289;28;20044;-63
2023/05/19 08:51:04;;;;;;;4.70;3.72;;;;;;;;;;5119913;22;20100;-64
2023/05/19 08:53:35;;;;;;;7.18;4.47;;;;;;;;;;5054885;28;20116;-63
2023/05/19 08:56:08;;;;;;;7.43;4.70;;;;;;;;;;5055495;28;20107;-63
2023/05/19 08:58:34;;;;;;;7.03;4.38;;;;;;;;;;5038448;28;20380;-63
2023/05/19 09:01:00;;;;;;;7.55;4.30;;;;;;;;;;5055357;28;20033;-63
2023/05/19 09:03:27;;;;;;;6.28;4.32;;;;;;;;;;5055334;28;20025;-63
2023/05/19 09:05:52;;;;;;;6.63;4.75;;;;;;;;;;5055606;28;20017;-63
2023/05/19 09:08:18;;;;;;;7.00;4.97;;;;;;;;;;5055240;28;20514;-63
2023/05/19 09:10:43;;;;;;;5.95;4.20;;;;;;;;;;5054306;28;20108;-63
2023/05/19 09:13:08;;;;;;;5.88;4.13;;;;;;;;;;5055190;28;20370;-63
2023/05/19 09:15:35;;;;;;;4.68;4.20;;;;;;;;;;5055400;28;20487;-63
2023/05/19 09:18:08;;;;;;;6.35;4.25;;;;;;;;;;5037313;28;20086;-63
2023/05/19 09:20:38;;;;;;;5.03;4.10;;;;;;;;;;5055213;28;20487;-63
2023/05/19 09:23:04;;;;;;;5.43;3.58;;;;;;;;;;5055274;28;20035;-63
2023/05/19 09:25:30;;;;;;;4.78;3.80;;;;;;;;;;5055203;28;20060;-63
2023/05/19 09:27:56;;;;;;;5.75;3.65;;;;;;;;;;5037838;28;20021;-63
2023/05/19 09:30:22;;;;;;;7.05;3.60;;;;;;;;;;5036167;28;20544;-63
2023/05/19 09:32:48;;;;;;;4.57;4.18;;;;;;;;;;5036933;28;20040;-63
2023/05/19 09:35:16;;;;;;;4.13;3.72;;;;;;;;;;5054729;28;20029;-63
2023/05/19 09:37:42;;;;;;;6.25;3.92;;;;;;;;;;5036843;28;20051;-63
2023/05/19 09:40:09;;;;;;;7.15;3.78;;;;;;;;;;5054548;28;20029;-63
2023/05/19 09:42:38;;;;;;;4.50;3.67;;;;;;;;;;5054858;28;20108;-63
2023/05/19 09:45:04;;;;;;;3.25;3.05;;;;;;;;;;5054897;28;20359;-63
2023/05/19 09:47:39;;;;;;;5.93;3.47;;;;;;;;;;5036795;28;20039;-63
2023/05/19 09:50:07;;;;;;;4.18;3.25;;;;;;;;;;5054736;28;20037;-63
2023/05/19 09:52:41;;;;;;;5.07;3.80;;;;;;;;;;5054478;28;20043;-63
2023/05/19 09:55:10;;;;;;;4.00;3.45;;;;;;;;;;5054623;28;20392;-63
2023/05/19 09:57:37;;;;;;;5.32;4.25;;;;;;;;;;5054598;28;20033;-63
2023/05/19 10:00:24;;;;;;;5.05;3.58;;;;;;;;;;5054786;28;20075;-63
2023/05/19 10:02:50;;;;;;;5.22;3.88;;;;;;;;;;5054777;28;20033;-63
2023/05/19 10:05:18;;;;;;;4.57;3.72;;;;;;;;;;5054156;28;20028;-63
2023/05/19 10:07:47;;;;;;;6.15;4.30;;;;;;;;;;5036591;28;20037;-63
2023/05/19 10:10:13;;;;;;;4.18;3.78;;;;;;;;;;5054685;28;20365;-63
2023/05/19 10:12:38;;;;;;;4.78;4.38;;;;;;;;;;5054018;28;20033;-63
2023/05/19 10:15:14;;;;;;;5.50;4.63;;;;;;;;;;5054284;28;20037;-63
2023/05/19 10:17:40;;;;;;;4.32;3.85;;;;;;;;;;5054527;28;20372;-63
2023/05/19 10:20:11;;;;;;;4.38;3.97;;;;;;;;;;5067345;22;20052;-63
2023/05/19 10:22:43;;;;;;;8.82;4.22;;;;;;;;;;5106808;22;20049;-68
2023/05/19 10:25:09;;;;;;;4.63;4.30;;;;;;;;;;5094112;28;20058;-68
2023/05/19 10:27:37;;;;;;;4.80;4.40;;;;;;;;;;5094350;28;20016;-68
2023/05/19 10:30:06;;;;;;;4.78;4.28;;;;;;;;;;5075836;28;20032;-68
2023/05/19 10:32:32;;;;;;;4.68;3.75;;;;;;;;;;5094231;28;20039;-68
2023/05/19 10:34:58;;;;;;;5.40;4.50;;;;;;;;;;5093947;28;20042;-68
2023/05/19 10:37:27;;;;;;;6.65;4.68;;;;;;;;;;5093899;28;20023;-68
2023/05/19 10:39:54;;;;;;;5.47;4.43;;;;;;;;;;5075781;28;20067;-63
2023/05/19 10:42:38;;;;;;;5.10;4.60;;;;;;;;;;5093853;28;20073;-63
2023/05/19 10:45:06;;;;;;;5.30;4.28;;;;;;;;;;5075693;28;20139;-63
2023/05/19 10:47:33;;;;;;;5.97;5.18;;;;;;;;;;5094337;28;20047;-63
2023/05/19 10:49:59;;;;;;;5.70;5.20;;;;;;;;;;5094063;28;20045;-63
2023/05/19 10:52:24;;;;;;;6.88;4.88;;;;;;;;;;5094003;28;20028;-63
2023/05/19 10:54:53;;;;;;;7.05;4.93;;;;;;;;;;5094005;28;20032;-63
2023/05/19 10:57:19;;;;;;;5.30;4.80;;;;;;;;;;5093697;28;20035;-63
2023/05/19 10:59:44;;;;;;;5.50;5.00;;;;;;;;;;5093653;28;20073;-63
2023/05/19 11:02:09;;;;;;;6.43;4.47;;;;;;;;;;5093827;28;20039;-63
2023/05/19 11:04:45;;;;;;;5.55;4.60;;;;;;;;;;5075526;28;20017;-63
2023/05/19 11:07:14;;;;;;;6.22;5.55;;;;;;;;;;5093572;28;20043;-63
2023/05/19 11:09:39;;;;;;;6.88;5.50;;;;;;;;;;5093562;28;20365;-63
2023/05/19 11:12:05;;;;;;;5.97;5.32;;;;;;;;;;5075470;28;20145;-63
2023/05/19 11:14:31;;;;;;;6.30;5.45;;;;;;;;;;5093770;28;20032;-63
2023/05/19 11:16:56;;;;;;;6.25;5.65;;;;;;;;;;5093776;28;20039;-65
2023/05/19 11:19:26;;;;;;;5.63;5.13;;;;;;;;;;5096308;28;20064;-63
2023/05/19 11:21:54;;;;;;;6.55;5.32;;;;;;;;;;5095855;28;20023;-63
2023/05/19 11:24:37;;;;;;;5.22;4.72;;;;;;;;;;5093917;28;20105;-63
2023/05/19 11:27:21;;;;;;;7.93;5.53;;;;;;;;;;5075272;28;20391;-63
2023/05/19 11:29:47;;;;;;;7.13;5.68;;;;;;;;;;5093635;28;20028;-63
2023/05/19 11:32:12;;;;;;;5.13;4.70;;;;;;;;;;5093392;28;20365;-63
2023/05/19 11:34:38;;;;;;;8.35;5.68;;;;;;;;;;5093363;28;20042;-63
2023/05/19 11:37:05;;;;;;;7.55;5.57;;;;;;;;;;5093341;28;20370;-63
2023/05/19 11:39:31;;;;;;;6.45;5.50;;;;;;;;;;5093314;28;20044;-63
2023/05/19 11:41:56;;;;;;;6.13;5.22;;;;;;;;;;5093497;28;20038;-63
2023/05/19 11:44:22;;;;;;;10.45;5.53;;;;;;;;;;5093540;28;20077;-63
2023/05/19 11:46:47;;;;;;;5.32;4.82;;;;;;;;;;5093235;28;20067;-63
2023/05/19 11:49:13;;;;;;;5.65;5.07;;;;;;;;;;5093218;28;20491;-63
2023/05/19 11:51:42;;;;;;;8.52;4.65;;;;;;;;;;5091928;28;20112;-63
2023/05/19 11:54:07;;;;;;;4.57;4.18;;;;;;;;;;5094560;28;20032;-68
2023/05/19 11:56:33;;;;;;;5.45;4.30;;;;;;;;;;5078703;28;20024;-68
2023/05/19 11:58:58;;;;;;;4.55;4.15;;;;;;;;;;5096874;28;20049;-68
2023/05/19 12:01:27;;;;;;;9.13;4.68;;;;;;;;;;5096711;28;20090;-68
2023/05/19 12:03:52;;;;;;;11.13;4.50;;;;;;;;;;5097280;28;20032;-68
2023/05/19 12:06:17;;;;;;;7.95;4.55;;;;;;;;;;5096680;28;20027;-68
2023/05/19 12:08:44;;;;;;;5.30;4.50;;;;;;;;;;5096952;28;20028;-68
2023/05/19 12:11:10;;;;;;;7.32;4.50;;;;;;;;;;5096643;28;20028;-68
2023/05/19 12:13:35;;;;;;;4.80;4.40;;;;;;;;;;5096589;28;20043;-69
2023/05/19 12:16:02;;;;;;;5.15;4.65;;;;;;;;;;5096469;28;20039;-69
2023/05/19 12:18:29;;;;;;;7.18;5.45;;;;;;;;;;5096769;28;20458;-68
2023/05/19 12:20:55;;;;;;;5.95;5.20;;;;;;;;;;5096390;28;20032;-68
2023/05/19 12:23:20;;;;;;;5.35;4.85;;;;;;;;;;5111982;28;20059;-68
2023/05/19 12:25:47;;;;;;;5.20;4.53;;;;;;;;;;5096650;28;20387;-68
2023/05/19 12:28:12;;;;;;;5.07;4.07;;;;;;;;;;5078823;28;20439;-68
2023/05/19 12:30:37;;;;;;;5.75;4.50;;;;;;;;;;5078172;28;20032;-68
2023/05/19 12:33:03;;;;;;;6.32;4.95;;;;;;;;;;5096474;28;20086;-68
2023/05/19 12:35:29;;;;;;;6.78;4.57;;;;;;;;;;5096679;28;20031;-68
2023/05/19 12:37:55;;;;;;;5.05;4.55;;;;;;;;;;5096105;28;20024;-68
2023/05/19 12:40:20;;;;;;;5.38;4.82;;;;;;;;;;5078013;28;20096;-68
2023/05/19 12:42:47;;;;;;;5.47;4.95;;;;;;;;;;5096025;28;20032;-68
2023/05/19 12:45:12;;;;;;;4.78;4.38;;;;;;;;;;5122676;22;20048;-63
2023/05/19 12:47:38;;;;;;;6.22;4.88;;;;;;;;;;5075815;23;20087;-68
2023/05/19 12:50:08;;;;;;;5.18;4.78;;;;;;;;;;5055663;28;20028;-68
2023/05/19 12:52:34;;;;;;;8.38;5.07;;;;;;;;;;5055859;28;20025;-68
2023/05/19 12:55:04;;;;;;;11.60;5.60;;;;;;;;;;5055529;28;20032;-68
2023/05/19 12:57:33;;;;;;;5.90;5.30;;;;;;;;;;5055737;28;20428;-68
2023/05/19 13:00:09;;;;;;;5.82;4.60;;;;;;;;;;5054244;28;20021;-63
2023/05/19 13:02:35;;;;;;;7.40;5.50;;;;;;;;;;5055606;28;20072;-63
2023/05/19 13:05:01;;;;;;;5.68;5.07;;;;;;;;;;5055841;28;20033;-63
2023/05/19 13:07:26;;;;;;;6.20;5.32;;;;;;;;;;5055695;28;20040;-69
2023/05/19 13:09:55;;;;;;;5.22;4.72;;;;;;;;;;5055231;28;20107;-68
2023/05/19 13:12:20;;;;;;;5.57;5.05;;;;;;;;;;5054771;28;20523;-68
2023/05/19 13:14:46;;;;;;;5.70;5.05;;;;;;;;;;5064624;28;20024;-68
2023/05/19 13:17:11;;;;;;;5.80;5.18;;;;;;;;;;5073782;28;20067;-68
2023/05/19 13:19:36;;;;;;;6.30;5.25;;;;;;;;;;5073152;28;20032;-69
2023/05/19 13:22:02;;;;;;;7.25;5.63;;;;;;;;;;5055367;28;20373;-69
2023/05/19 13:24:28;;;;;;;6.35;4.82;;;;;;;;;;5072843;28;20579;-69
2023/05/19 13:26:53;;;;;;;6.15;5.00;;;;;;;;;;5073668;28;20083;-69
2023/05/19 13:29:19;;;;;;;7.22;4.90;;;;;;;;;;5073989;28;20407;-67
2023/05/19 13:31:44;;;;;;;5.88;5.28;;;;;;;;;;5074785;28;20047;-68
2023/05/19 13:34:10;;;;;;;5.55;4.95;;;;;;;;;;5073430;28;20041;-68
2023/05/19 13:36:35;;;;;;;5.85;5.25;;;;;;;;;;5072458;28;20028;-68
2023/05/19 13:39:00;;;;;;;8.48;5.20;;;;;;;;;;5074891;28;20029;-68
2023/05/19 13:41:28;;;;;;;5.50;4.88;;;;;;;;;;5071808;28;20420;-68
2023/05/19 13:43:53;;;;;;;7.05;5.30;;;;;;;;;;5072712;28;20060;-68
2023/05/19 13:46:19;;;;;;;8.07;6.43;;;;;;;;;;5073950;28;20071;-68
2023/05/19 13:48:44;;;;;;;8.13;5.60;;;;;;;;;;5092706;28;20047;-68
2023/05/19 13:51:09;;;;;;;6.07;5.30;;;;;;;;;;5092764;28;20071;-68
2023/05/19 13:53:35;;;;;;;6.75;5.82;;;;;;;;;;5093276;28;20012;-68
2023/05/19 13:56:01;;;;;;;6.95;5.90;;;;;;;;;;5059159;28;20039;-68
2023/05/19 13:58:28;;;;;;;7.72;5.38;;;;;;;;;;5094845;28;20464;-69
2023/05/19 14:00:55;;;;;;;5.90;5.20;;;;;;;;;;5094436;28;20457;-69
2023/05/19 14:03:21;;;;;;;7.72;6.03;;;;;;;;;;5076424;28;20043;-68
2023/05/19 14:05:46;;;;;;;6.90;5.55;;;;;;;;;;5094664;28;20451;-68
2023/05/19 14:08:12;;;;;;;11.35;5.88;;;;;;;;;;5059626;28;20032;-68
2023/05/19 14:10:37;;;;;;;7.88;5.47;;;;;;;;;;5094317;28;20056;-68
2023/05/19 14:13:04;;;;;;;8.70;5.65;;;;;;;;;;5094582;28;20068;-68
2023/05/19 14:15:29;;;;;;;6.43;5.70;;;;;;;;;;5094240;28;20445;-68
2023/05/19 14:17:55;;;;;;;9.15;6.78;;;;;;;;;;5094031;28;20036;-68
2023/05/19 14:20:20;;;;;;;7.43;5.88;;;;;;;;;;5075988;28;20039;-68
2023/05/19 14:22:45;;;;;;;39.35;31.88;;;;;;;;;;5094415;28;20086;-68
2023/05/19 14:25:11;;;;;;;8.32;6.13;;;;;;;;;;5094402;28;20058;-68
2023/05/19 14:27:38;;;;;;;215.80;78.70;;;;;;;;;;5094355;28;20019;-68
2023/05/19 14:30:03;;;;;;;20.55;10.75;;;;;;;;;;5094063;28;20154;-68
2023/05/19 14:32:29;;;;;;;10.48;7.35;;;;;;;;;;5094001;28;20074;-68
2023/05/19 14:34:54;;;;;;;6.43;5.53;;;;;;;;;;5094261;28;20059;-68
2023/05/19 14:37:19;;;;;;;50.20;20.42;;;;;;;;;;5094163;28;20072;-68
2023/05/19 14:39:45;;;;;;;25.58;14.82;;;;;;;;;;5075788;28;20141;-68
2023/05/19 14:42:10;;;;;;;10.73;6.60;;;;;;;;;;5094057;28;20047;-68